createdAt,value
2018-06-14T00:01:33.797Z,3.63
2018-06-14T00:04:01.093Z,2.40
2018-06-14T00:06:28.361Z,2.70
2018-06-14T00:08:55.628Z,3.40
2018-06-14T00:11:23.114Z,2.80
2018-06-14T00:13:50.393Z,2.60
2018-06-14T00:16:17.715Z,2.70
2018-06-14T00:18:44.970Z,2.60
2018-06-14T00:21:12.248Z,2.83
2018-06-14T00:23:39.543Z,3.47
2018-06-14T00:26:06.833Z,3.43
2018-06-14T00:28:34.113Z,2.77
2018-06-14T00:31:01.385Z,3.30
2018-06-14T00:33:28.654Z,3.07
2018-06-14T00:35:55.916Z,3.23
2018-06-14T00:38:23.185Z,3.27
2018-06-14T00:40:50.538Z,3.03
2018-06-14T00:43:17.869Z,3.03
2018-06-14T00:45:45.145Z,3.43
2018-06-14T00:48:12.457Z,3.40
2018-06-14T00:50:39.775Z,3.40
2018-06-14T00:53:07.078Z,3.30
2018-06-14T00:55:34.350Z,3.77
2018-06-14T00:58:01.610Z,4.30
2018-06-14T01:00:28.882Z,3.47
2018-06-14T01:02:56.220Z,3.70
2018-06-14T01:05:23.501Z,3.87
2018-06-14T01:07:50.773Z,2.73
2018-06-14T01:10:18.029Z,3.33
2018-06-14T01:12:45.557Z,3.60
2018-06-14T01:15:12.825Z,3.30
2018-06-14T01:17:40.120Z,3.30
2018-06-14T01:20:07.421Z,3.27
2018-06-14T01:22:34.712Z,2.90
2018-06-14T01:25:02.043Z,3.03
2018-06-14T01:27:29.288Z,4.10
2018-06-14T01:29:56.574Z,3.00
2018-06-14T01:32:23.836Z,3.13
2018-06-14T01:34:51.101Z,4.70
2018-06-14T01:38:25.825Z,3.90
2018-06-14T01:40:53.489Z,3.33
2018-06-14T01:43:21.376Z,3.07
2018-06-14T01:45:48.649Z,3.20
2018-06-14T01:48:16.290Z,3.30
2018-06-14T01:50:43.586Z,2.73
2018-06-14T01:53:10.865Z,3.10
2018-06-14T01:55:38.151Z,3.37
2018-06-14T01:58:05.474Z,3.07
2018-06-14T02:00:32.746Z,3.27
2018-06-14T02:03:00.045Z,3.50
2018-06-14T02:05:27.817Z,2.97
2018-06-14T02:07:55.169Z,3.50
2018-06-14T02:10:22.429Z,3.90
2018-06-14T02:12:49.941Z,4.73
2018-06-14T02:15:17.201Z,3.83
2018-06-14T02:17:44.469Z,2.87
2018-06-14T02:20:11.777Z,2.83
2018-06-14T02:22:39.057Z,4.10
2018-06-14T02:25:06.485Z,3.30
2018-06-14T02:27:33.854Z,3.33
2018-06-14T02:30:01.113Z,3.60
2018-06-14T02:32:28.709Z,3.70
2018-06-14T02:34:55.975Z,2.97
2018-06-14T02:37:23.252Z,3.90
2018-06-14T02:39:50.545Z,3.13
2018-06-14T02:42:17.837Z,3.10
2018-06-14T02:44:45.146Z,2.80
2018-06-14T02:47:12.413Z,3.70
2018-06-14T02:49:39.689Z,4.00
2018-06-14T02:52:06.969Z,3.47
2018-06-14T02:54:34.218Z,3.70
2018-06-14T02:57:01.481Z,3.20
2018-06-14T02:59:28.741Z,3.53
2018-06-14T03:01:56.008Z,3.67
2018-06-14T03:04:23.274Z,3.60
2018-06-14T03:06:50.838Z,4.37
2018-06-14T03:09:18.117Z,3.73
2018-06-14T03:11:45.412Z,3.77
2018-06-14T03:14:13.089Z,3.57
2018-06-14T03:16:40.409Z,4.07
2018-06-14T03:19:07.710Z,3.13
2018-06-14T03:21:35.020Z,3.47
2018-06-14T03:24:02.316Z,3.40
2018-06-14T03:26:29.606Z,3.93
2018-06-14T03:28:56.885Z,4.17
2018-06-14T03:31:24.149Z,3.90
2018-06-14T03:33:51.432Z,3.80
2018-06-14T03:36:18.740Z,3.80
2018-06-14T03:38:46.064Z,3.90
2018-06-14T03:41:13.361Z,3.60
2018-06-14T03:43:40.661Z,3.73
2018-06-14T03:46:07.957Z,4.50
2018-06-14T03:48:35.229Z,4.40
2018-06-14T03:51:02.509Z,4.33
2018-06-14T03:53:29.781Z,4.87
2018-06-14T03:55:57.040Z,3.70
2018-06-14T03:58:24.336Z,4.70
2018-06-14T04:00:51.625Z,4.20
2018-06-14T04:03:18.881Z,4.57
2018-06-14T04:05:46.150Z,4.37
2018-06-14T04:08:13.420Z,4.17
2018-06-14T04:10:40.749Z,4.37
2018-06-14T04:13:08.017Z,4.33
2018-06-14T04:15:35.545Z,4.13
2018-06-14T04:18:03.317Z,4.20
2018-06-14T04:20:32.163Z,4.73
2018-06-14T04:22:59.774Z,4.60
2018-06-14T04:25:27.085Z,4.40
2018-06-14T04:27:54.385Z,4.50
2018-06-14T04:30:21.765Z,4.83
2018-06-14T04:32:49.083Z,6.20
2018-06-14T04:35:16.365Z,5.70
2018-06-14T04:37:43.676Z,6.00
2018-06-14T04:40:10.997Z,5.00
2018-06-14T04:42:38.291Z,5.23
2018-06-14T04:45:05.555Z,5.23
2018-06-14T04:47:32.852Z,5.07
2018-06-14T04:50:00.146Z,5.80
2018-06-14T04:52:27.425Z,4.70
2018-06-14T04:54:54.697Z,5.07
2018-06-14T04:57:22.018Z,5.23
2018-06-14T04:59:49.309Z,5.40
2018-06-14T05:02:16.584Z,6.03
2018-06-14T05:04:43.983Z,5.37
2018-06-14T05:07:11.257Z,5.30
2018-06-14T05:09:38.612Z,5.57
2018-06-14T05:12:05.973Z,4.50
2018-06-14T05:14:33.254Z,5.70
2018-06-14T05:17:00.783Z,6.00
2018-06-14T05:19:28.089Z,5.50
2018-06-14T05:21:55.403Z,6.13
2018-06-14T05:24:22.691Z,5.33
2018-06-14T05:26:49.981Z,5.20
2018-06-14T05:29:17.252Z,6.17
2018-06-14T05:31:44.528Z,6.50
2018-06-14T05:34:11.781Z,5.30
2018-06-14T05:36:39.045Z,6.50
2018-06-14T05:39:07.089Z,4.97
2018-06-14T05:41:34.370Z,5.63
2018-06-14T05:44:01.643Z,5.57
2018-06-14T05:46:28.976Z,5.67
2018-06-14T05:48:56.243Z,4.47
2018-06-14T05:51:23.526Z,5.60
2018-06-14T05:53:50.848Z,5.27
2018-06-14T05:56:18.174Z,5.07
2018-06-14T05:58:45.445Z,6.57
2018-06-14T06:01:12.739Z,6.30
2018-06-14T06:03:40.009Z,5.53
2018-06-14T06:06:08.073Z,5.73
2018-06-14T06:08:35.345Z,5.73
2018-06-14T06:11:02.637Z,5.70
2018-06-14T06:13:29.922Z,5.40
2018-06-14T06:15:57.184Z,5.63
2018-06-14T06:18:24.657Z,5.80
2018-06-14T06:20:51.973Z,5.30
2018-06-14T06:23:19.245Z,4.57
2018-06-14T06:25:46.541Z,4.90
2018-06-14T06:28:13.812Z,5.47
2018-06-14T06:30:41.131Z,5.63
2018-06-14T06:33:08.434Z,5.60
2018-06-14T06:35:35.705Z,5.60
2018-06-14T06:38:02.997Z,5.67
2018-06-14T06:40:30.273Z,6.27
2018-06-14T06:42:57.554Z,5.67
2018-06-14T06:45:24.825Z,5.47
2018-06-14T06:47:52.129Z,4.87
2018-06-14T06:50:19.418Z,6.73
2018-06-14T06:52:46.740Z,6.60
2018-06-14T06:55:14.048Z,4.73
2018-06-14T06:57:41.374Z,5.80
2018-06-14T07:00:08.705Z,5.60
2018-06-14T07:02:35.964Z,5.40
2018-06-14T07:05:03.247Z,5.23
2018-06-14T07:07:30.549Z,6.20
2018-06-14T07:09:57.816Z,5.20
2018-06-14T07:12:25.081Z,5.63
2018-06-14T07:14:52.354Z,6.30
2018-06-14T07:17:19.636Z,5.17
2018-06-14T07:19:46.939Z,6.10
2018-06-14T07:22:14.198Z,6.77
2018-06-14T07:24:41.543Z,5.50
2018-06-14T07:27:08.813Z,5.60
2018-06-14T07:29:36.101Z,6.40
2018-06-14T07:32:03.384Z,5.80
2018-06-14T07:34:30.658Z,5.70
2018-06-14T07:36:57.937Z,6.33
2018-06-14T07:39:25.196Z,6.13
2018-06-14T07:41:52.534Z,5.13
2018-06-14T07:44:19.814Z,5.97
2018-06-14T07:46:47.118Z,6.47
2018-06-14T07:49:14.373Z,6.53
2018-06-14T07:51:41.625Z,6.63
2018-06-14T07:54:08.976Z,6.30
2018-06-14T07:56:36.244Z,6.53
2018-06-14T07:59:03.541Z,6.40
2018-06-14T08:01:30.826Z,6.63
2018-06-14T08:03:58.101Z,6.80
2018-06-14T08:06:25.402Z,8.03
2018-06-14T08:08:52.680Z,7.90
2018-06-14T08:11:19.953Z,6.80
2018-06-14T08:13:47.282Z,8.30
2018-06-14T08:16:14.562Z,6.40
2018-06-14T08:18:41.838Z,8.03
2018-06-14T08:21:09.136Z,7.10
2018-06-14T08:23:36.420Z,7.47
2018-06-14T08:26:03.709Z,6.70
2018-06-14T08:28:30.971Z,7.43
2018-06-14T08:30:58.245Z,7.20
2018-06-14T08:33:25.561Z,6.80
2018-06-14T08:35:52.837Z,7.03
2018-06-14T08:38:20.124Z,7.90
2018-06-14T08:40:47.421Z,6.97
2018-06-14T08:43:14.745Z,7.40
2018-06-14T08:45:42.054Z,6.17
2018-06-14T08:48:09.477Z,6.90
2018-06-14T08:50:36.766Z,6.60
2018-06-14T08:53:04.050Z,8.03
2018-06-14T08:55:31.476Z,8.13
2018-06-14T08:57:58.757Z,7.00
2018-06-14T09:00:26.065Z,7.27
2018-06-14T09:02:53.564Z,8.10
2018-06-14T09:05:20.863Z,8.30
2018-06-14T09:07:48.138Z,7.17
2018-06-14T09:10:15.409Z,6.47
2018-06-14T09:12:42.685Z,6.93
2018-06-14T09:15:10.000Z,6.23
2018-06-14T09:17:37.270Z,7.17
2018-06-14T09:20:04.576Z,6.60
2018-06-14T09:22:31.848Z,7.73
2018-06-14T09:24:59.259Z,6.77
2018-06-14T09:27:26.549Z,5.87
2018-06-14T09:29:53.901Z,5.63
2018-06-14T09:32:21.113Z,7.27
2018-06-14T09:34:48.454Z,7.03
2018-06-14T09:37:15.800Z,7.43
2018-06-14T09:39:43.069Z,5.60
2018-06-14T09:42:10.393Z,6.80
2018-06-14T09:44:37.702Z,7.60
2018-06-14T09:47:04.967Z,8.33
2018-06-14T09:49:32.315Z,8.10
2018-06-14T09:51:59.608Z,7.43
2018-06-14T09:54:26.917Z,5.27
2018-06-14T09:56:54.188Z,5.67
2018-06-14T09:59:21.469Z,6.70
2018-06-14T10:01:48.805Z,7.30
2018-06-14T10:04:16.077Z,6.60
2018-06-14T10:06:43.349Z,7.30
2018-06-14T10:09:11.903Z,6.87
2018-06-14T10:11:39.225Z,6.10
2018-06-14T10:14:06.784Z,7.70
2018-06-14T10:16:34.073Z,5.60
2018-06-14T10:19:01.369Z,7.80
2018-06-14T10:21:28.649Z,6.90
2018-06-14T10:23:55.944Z,6.23
2018-06-14T10:26:23.223Z,6.47
2018-06-14T10:28:50.511Z,6.30
2018-06-14T10:31:17.793Z,6.33
2018-06-14T10:33:45.065Z,8.03
2018-06-14T10:36:12.376Z,6.40
2018-06-14T10:38:39.649Z,6.50
2018-06-14T10:41:06.933Z,7.37
2018-06-14T10:43:34.232Z,6.87
2018-06-14T10:46:01.541Z,6.83
2018-06-14T10:48:28.821Z,7.60
2018-06-14T10:50:56.363Z,7.53
2018-06-14T10:53:23.645Z,6.60
2018-06-14T10:55:50.913Z,6.13
2018-06-14T10:58:18.177Z,5.40
2018-06-14T11:00:45.449Z,6.40
2018-06-14T11:03:12.766Z,5.63
2018-06-14T11:05:40.049Z,6.03
2018-06-14T11:08:07.321Z,5.40
2018-06-14T11:10:34.645Z,4.97
2018-06-14T11:13:01.939Z,6.33
2018-06-14T11:15:29.236Z,4.27
2018-06-14T11:17:56.561Z,5.80
2018-06-14T11:20:23.931Z,5.33
2018-06-14T11:22:51.260Z,4.60
2018-06-14T11:25:18.762Z,4.77
2018-06-14T11:27:46.037Z,5.13
2018-06-14T11:30:13.309Z,5.80
2018-06-14T11:32:40.609Z,4.97
2018-06-14T11:35:07.889Z,4.50
2018-06-14T11:37:35.165Z,4.57
2018-06-14T11:40:02.639Z,4.70
2018-06-14T11:42:29.952Z,4.27
2018-06-14T11:44:57.240Z,4.40
2018-06-14T11:47:24.525Z,4.67
2018-06-14T11:49:51.990Z,4.60
2018-06-14T11:52:19.281Z,4.50
2018-06-14T11:54:46.570Z,4.87
2018-06-14T11:57:13.942Z,4.77
2018-06-14T11:59:41.226Z,4.67
2018-06-14T12:02:08.703Z,4.60
2018-06-14T12:04:36.011Z,4.67
2018-06-14T12:07:03.346Z,4.90
2018-06-14T12:09:30.617Z,4.37
2018-06-14T12:11:57.887Z,5.00
2018-06-14T12:14:25.214Z,4.80
2018-06-14T12:16:52.516Z,4.23
2018-06-14T12:19:19.997Z,4.83
2018-06-14T12:21:47.313Z,5.40
2018-06-14T12:24:14.627Z,4.27
2018-06-14T12:26:42.166Z,3.97
2018-06-14T12:29:09.434Z,4.33
2018-06-14T12:31:36.775Z,5.23
2018-06-14T12:34:04.107Z,4.60
2018-06-14T12:36:31.423Z,4.50
2018-06-14T12:38:58.674Z,4.97
2018-06-14T12:41:25.975Z,5.07
2018-06-14T12:43:53.543Z,5.33
2018-06-14T12:46:20.805Z,4.93
2018-06-14T12:48:48.069Z,4.90
2018-06-14T12:51:15.344Z,5.40
2018-06-14T12:53:42.613Z,5.27
2018-06-14T12:56:09.909Z,5.93
2018-06-14T12:58:37.228Z,6.37
2018-06-14T13:01:04.507Z,7.17
2018-06-14T13:03:31.787Z,6.53
2018-06-14T13:05:59.064Z,7.20
2018-06-14T13:08:26.355Z,8.07
2018-06-14T13:10:53.629Z,8.83
2018-06-14T13:13:20.945Z,8.13
2018-06-14T13:15:48.261Z,8.60
2018-06-14T13:18:15.769Z,9.00
2018-06-14T13:20:43.033Z,9.37
2018-06-14T13:23:10.317Z,9.83
2018-06-14T13:25:37.618Z,8.93
2018-06-14T13:28:05.145Z,8.87
2018-06-14T13:30:32.432Z,8.63
2018-06-14T13:32:59.857Z,10.77
2018-06-14T13:35:27.161Z,10.90
2018-06-14T13:37:54.525Z,8.53
2018-06-14T13:40:21.777Z,8.17
2018-06-14T13:42:49.107Z,7.97
2018-06-14T13:45:16.358Z,8.37
2018-06-14T13:47:43.633Z,8.57
2018-06-14T13:50:10.929Z,7.70
2018-06-14T13:52:38.215Z,8.57
2018-06-14T13:55:05.469Z,8.93
2018-06-14T13:57:32.746Z,6.90
2018-06-14T14:00:00.077Z,7.40
2018-06-14T14:02:27.348Z,6.60
2018-06-14T14:04:54.614Z,5.97
2018-06-14T14:07:26.192Z,7.03
2018-06-14T14:09:53.929Z,7.10
2018-06-14T14:12:21.196Z,6.97
2018-06-14T14:14:48.472Z,7.03
2018-06-14T14:17:15.749Z,6.37
2018-06-14T14:19:43.033Z,6.30
2018-06-14T14:22:10.302Z,6.00
2018-06-14T14:24:37.626Z,5.47
2018-06-14T14:27:04.999Z,5.03
2018-06-14T14:29:32.521Z,5.90
2018-06-14T14:31:59.806Z,6.23
2018-06-14T14:34:27.097Z,5.40
2018-06-14T14:36:54.377Z,5.70
2018-06-14T14:39:21.637Z,4.67
2018-06-14T14:41:48.903Z,4.83
2018-06-14T14:44:16.191Z,4.60
2018-06-14T14:46:43.475Z,6.67
2018-06-14T14:49:10.966Z,5.40
2018-06-14T14:51:38.241Z,4.97
2018-06-14T14:54:05.522Z,4.77
2018-06-14T14:56:32.817Z,4.70
2018-06-14T14:59:00.117Z,3.90
2018-06-14T15:01:27.379Z,5.23
2018-06-14T15:03:54.687Z,5.20
2018-06-14T15:06:21.962Z,4.37
2018-06-14T15:08:49.377Z,4.33
2018-06-14T15:11:16.660Z,4.60
2018-06-14T15:13:43.981Z,4.77
2018-06-14T15:16:11.253Z,5.80
2018-06-14T15:18:38.512Z,5.17
2018-06-14T15:21:05.982Z,4.07
2018-06-14T15:23:33.272Z,4.43
2018-06-14T15:26:00.577Z,4.80
2018-06-14T15:28:27.927Z,4.80
2018-06-14T15:30:55.398Z,5.80
2018-06-14T15:33:22.705Z,5.70
2018-06-14T15:35:49.997Z,6.20
2018-06-14T15:38:17.260Z,5.27
2018-06-14T15:40:44.556Z,6.10
2018-06-14T15:43:11.825Z,5.10
2018-06-14T15:45:39.086Z,4.90
2018-06-14T15:48:06.369Z,6.00
2018-06-14T15:50:33.714Z,4.97
2018-06-14T15:53:01.081Z,5.40
2018-06-14T15:55:34.949Z,5.40
2018-06-14T15:58:02.325Z,5.10
2018-06-14T16:00:29.965Z,5.87
2018-06-14T16:02:57.300Z,6.30
2018-06-14T16:05:24.585Z,5.70
2018-06-14T16:07:51.853Z,5.50
2018-06-14T16:10:19.145Z,5.80
2018-06-14T16:12:46.617Z,5.90
2018-06-14T16:15:13.901Z,6.00
2018-06-14T16:17:41.212Z,6.43
2018-06-14T16:20:08.477Z,6.53
2018-06-14T16:22:35.749Z,7.17
2018-06-14T16:25:03.043Z,7.23
2018-06-14T16:27:30.353Z,6.13
2018-06-14T16:29:57.633Z,7.17
2018-06-14T16:32:25.117Z,7.07
2018-06-14T16:34:52.381Z,7.03
2018-06-14T16:37:19.693Z,5.80
2018-06-14T16:39:46.964Z,6.37
2018-06-14T16:42:14.252Z,6.63
2018-06-14T16:44:41.515Z,7.80
2018-06-14T16:47:08.789Z,6.90
2018-06-14T16:49:36.064Z,7.10
2018-06-14T16:52:03.337Z,10.17
2018-06-14T16:54:30.624Z,13.47
2018-06-14T16:56:57.921Z,17.13
2018-06-14T16:59:25.185Z,17.10
2018-06-14T17:01:52.473Z,17.20
2018-06-14T17:04:19.761Z,18.70
2018-06-14T17:06:47.173Z,18.87
2018-06-14T17:09:14.461Z,20.47
2018-06-14T17:11:41.765Z,18.60
2018-06-14T17:14:09.041Z,22.27
2018-06-14T17:16:36.322Z,21.00
2018-06-14T17:19:03.609Z,21.37
2018-06-14T17:21:30.869Z,24.03
2018-06-14T17:23:58.149Z,23.90
2018-06-14T17:26:25.419Z,22.50
2018-06-14T17:28:52.701Z,21.40
2018-06-14T17:31:19.993Z,24.60
2018-06-14T17:33:47.505Z,21.77
2018-06-14T17:36:14.812Z,22.70
2018-06-14T17:38:42.098Z,23.47
2018-06-14T17:41:09.459Z,22.07
2018-06-14T17:43:36.706Z,22.43
2018-06-14T17:46:04.138Z,21.90
2018-06-14T17:48:31.406Z,22.30
2018-06-14T17:50:58.681Z,22.30
2018-06-14T17:53:25.981Z,22.67
2018-06-14T17:55:53.257Z,20.17
2018-06-14T17:58:20.745Z,22.07
2018-06-14T18:00:48.017Z,19.97
2018-06-14T18:03:15.296Z,19.40
2018-06-14T18:05:42.558Z,20.67
2018-06-14T18:08:09.826Z,19.03
2018-06-14T18:10:37.108Z,21.97
2018-06-14T18:13:04.409Z,20.00
2018-06-14T18:15:31.689Z,20.73
2018-06-14T18:17:58.964Z,20.67
2018-06-14T18:20:26.262Z,21.73
2018-06-14T18:22:53.555Z,20.80
2018-06-14T18:25:20.871Z,20.80
2018-06-14T18:27:48.207Z,22.27
2018-06-14T18:30:15.490Z,19.87
2018-06-14T18:32:42.789Z,20.97
2018-06-14T18:35:10.261Z,20.30
2018-06-14T18:37:37.573Z,19.17
2018-06-14T18:40:04.885Z,21.23
2018-06-14T18:42:32.209Z,21.30
2018-06-14T18:44:59.524Z,19.60
2018-06-14T18:47:26.866Z,19.87
2018-06-14T18:49:54.146Z,19.10
2018-06-14T18:52:21.429Z,19.40
2018-06-14T18:54:48.708Z,19.30
2018-06-14T18:57:16.270Z,21.70
2018-06-14T18:59:44.746Z,20.20
2018-06-14T19:02:12.041Z,20.00
2018-06-14T19:04:39.304Z,19.07
2018-06-14T19:07:06.643Z,22.80
2018-06-14T19:09:33.914Z,21.93
2018-06-14T19:12:01.213Z,19.40
2018-06-14T19:14:28.481Z,18.50
2018-06-14T19:16:55.793Z,19.37
2018-06-14T19:19:23.103Z,19.33
2018-06-14T19:21:50.400Z,18.37
2018-06-14T19:24:17.694Z,19.77
2018-06-14T19:26:45.030Z,18.00
2018-06-14T19:29:12.341Z,19.13
2018-06-14T19:31:39.632Z,18.70
2018-06-14T19:34:06.979Z,19.40
2018-06-14T19:36:34.533Z,17.23
2018-06-14T19:39:01.851Z,18.17
2018-06-14T19:41:29.153Z,18.13
2018-06-14T19:43:56.484Z,19.60
2018-06-14T19:46:23.801Z,21.00
2018-06-14T19:48:51.068Z,19.10
2018-06-14T19:51:18.685Z,18.60
2018-06-14T19:53:45.988Z,18.40
2018-06-14T19:56:13.294Z,17.27
2018-06-14T19:58:40.598Z,17.80
2018-06-14T20:01:07.935Z,18.87
2018-06-14T20:03:35.209Z,17.20
2018-06-14T20:06:02.545Z,16.80
2018-06-14T20:08:29.824Z,19.30
2018-06-14T20:10:57.126Z,16.80
2018-06-14T20:13:24.431Z,19.43
2018-06-14T20:15:51.711Z,18.90
2018-06-14T20:18:18.991Z,17.43
2018-06-14T20:20:46.428Z,19.30
2018-06-14T20:23:13.671Z,20.33
2018-06-14T20:25:40.960Z,18.47
2018-06-14T20:28:08.237Z,18.47
2018-06-14T20:30:35.566Z,16.60
2018-06-14T20:33:02.883Z,17.00
2018-06-14T20:35:30.188Z,17.73
2018-06-14T20:37:57.685Z,18.20
2018-06-14T20:40:24.957Z,18.13
2018-06-14T20:42:52.341Z,17.50
2018-06-14T20:45:19.652Z,17.83
2018-06-14T20:47:46.929Z,18.77
2018-06-14T20:50:14.201Z,16.00
2018-06-14T20:52:41.533Z,17.13
2018-06-14T20:55:08.841Z,18.20
2018-06-14T20:57:36.166Z,19.07
2018-06-14T21:00:03.421Z,17.90
2018-06-14T21:02:30.681Z,18.53
2018-06-14T21:04:57.992Z,17.60
2018-06-14T21:07:25.253Z,18.33
2018-06-14T21:09:52.517Z,18.60
2018-06-14T21:12:19.796Z,17.93
2018-06-14T21:14:47.072Z,19.07
2018-06-14T21:17:14.414Z,19.60
2018-06-14T21:19:41.685Z,18.43
2018-06-14T21:22:08.973Z,20.97
2018-06-14T21:24:36.247Z,22.17
2018-06-14T21:27:03.748Z,19.30
2018-06-14T21:29:31.015Z,20.30
2018-06-14T21:31:58.345Z,19.70
2018-06-14T21:34:25.652Z,20.10
2018-06-14T21:36:52.933Z,19.77
2018-06-14T21:39:20.213Z,22.33
2018-06-14T21:41:47.525Z,20.80
2018-06-14T21:44:14.801Z,22.13
2018-06-14T21:46:42.353Z,20.37
2018-06-14T21:49:09.650Z,21.97
2018-06-14T21:51:36.945Z,20.27
2018-06-14T21:54:04.225Z,20.50
2018-06-14T21:56:31.505Z,20.90
2018-06-14T21:58:58.784Z,22.17
2018-06-14T22:01:26.054Z,21.20
2018-06-14T22:03:57.210Z,20.80
2018-06-14T22:06:24.448Z,21.30
2018-06-14T22:08:51.738Z,21.90
2018-06-14T22:11:19.029Z,21.00
2018-06-14T22:13:46.319Z,21.43
2018-06-14T22:16:13.606Z,22.27
2018-06-14T22:18:40.893Z,23.50
2018-06-14T22:21:08.169Z,21.77
2018-06-14T22:23:35.449Z,21.80
2018-06-14T22:26:02.742Z,22.37
2018-06-14T22:28:30.037Z,22.70
2018-06-14T22:30:57.361Z,22.47
2018-06-14T22:33:30.396Z,20.77
2018-06-14T22:35:57.673Z,25.07
2018-06-14T22:38:24.965Z,21.10
2018-06-14T22:40:52.438Z,21.80
2018-06-14T22:43:19.713Z,21.70
2018-06-14T22:45:47.017Z,23.33
2018-06-14T22:48:14.345Z,20.90
2018-06-14T22:50:47.485Z,20.33
2018-06-14T22:53:14.759Z,21.10
2018-06-14T22:55:42.069Z,22.23
2018-06-14T22:58:09.361Z,20.13
2018-06-14T23:00:47.116Z,21.23
2018-06-14T23:03:14.381Z,22.13
2018-06-14T23:05:41.660Z,21.30
2018-06-14T23:08:08.939Z,21.20
2018-06-14T23:10:43.005Z,23.70
2018-06-14T23:13:11.763Z,23.03
2018-06-14T23:15:39.042Z,21.97
2018-06-14T23:18:06.384Z,23.67
2018-06-14T23:20:34.372Z,22.20
2018-06-14T23:23:02.265Z,23.87
2018-06-14T23:25:30.329Z,24.33
2018-06-14T23:27:57.644Z,21.87
2018-06-14T23:30:24.946Z,23.80
2018-06-14T23:32:52.201Z,22.40
2018-06-14T23:35:19.661Z,21.50
2018-06-14T23:37:46.985Z,23.00
2018-06-14T23:40:14.267Z,22.83
2018-06-14T23:42:41.949Z,21.93
2018-06-14T23:45:09.410Z,22.13
2018-06-14T23:47:36.790Z,24.10
2018-06-14T23:50:04.204Z,23.03
2018-06-14T23:52:31.493Z,23.10
2018-06-14T23:54:58.776Z,23.07
2018-06-14T23:57:26.114Z,23.03
2018-06-14T23:59:53.401Z,22.33
